createdAt,value
2018-09-22T00:00:45.019Z,84.23
2018-09-22T00:01:43.754Z,83.51
2018-09-22T00:04:24.177Z,83.94
2018-09-22T00:05:22.826Z,84.23
2018-09-22T00:08:03.325Z,84.77
2018-09-22T00:09:01.990Z,84.58
2018-09-22T00:10:00.580Z,84.67
2018-09-22T00:10:59.190Z,85.05
2018-09-22T00:11:57.961Z,84.14
2018-09-22T00:12:56.547Z,84.61
2018-09-22T00:13:55.103Z,83.94
2018-09-22T00:14:53.683Z,83.56
2018-09-22T00:15:52.366Z,83.75
2018-09-22T00:16:51.014Z,83.75
2018-09-22T00:17:49.680Z,83.85
2018-09-22T00:18:48.256Z,83.65
2018-09-22T00:19:46.938Z,82.7
2018-09-22T00:20:45.584Z,83.18
2018-09-22T00:21:44.373Z,82.51
2018-09-22T00:22:42.936Z,82.98
2018-09-22T00:23:41.542Z,82.12
2018-09-22T00:24:40.239Z,82.12
2018-09-22T00:25:38.846Z,82.12
2018-09-22T00:26:37.457Z,82.12
2018-09-22T00:27:36.191Z,81.64
2018-09-22T00:28:35.046Z,81.64
2018-09-22T00:29:33.722Z,82.21
2018-09-22T00:30:32.289Z,82.51
2018-09-22T00:33:12.513Z,82.03
2018-09-22T00:34:11.288Z,82.12
2018-09-22T00:35:09.998Z,81.64
2018-09-22T00:36:08.655Z,81.84
2018-09-22T00:37:07.238Z,81.84
2018-09-22T00:39:47.706Z,81.07
2018-09-22T00:40:46.330Z,81.54
2018-09-22T00:41:44.938Z,81.93
2018-09-22T00:42:43.550Z,81.59
2018-09-22T00:43:42.172Z,80.87
2018-09-22T00:44:40.853Z,80.91
2018-09-22T00:45:39.438Z,80.58
2018-09-22T00:46:38.287Z,81.74
2018-09-22T00:47:37.044Z,80.97
2018-09-22T00:48:36.699Z,80.97
2018-09-22T00:49:35.207Z,80.87
2018-09-22T00:50:33.805Z,80.87
2018-09-22T00:53:14.248Z,79.91
2018-09-22T00:54:12.839Z,79.53
2018-09-22T00:55:11.595Z,80.68
2018-09-22T00:56:10.253Z,80.78
2018-09-22T00:57:08.692Z,81.07
2018-09-22T00:58:07.375Z,80.78
2018-09-22T01:01:28.641Z,80.11
2018-09-22T01:02:27.304Z,79.63
2018-09-22T01:05:07.486Z,78.77
2018-09-22T01:06:06.125Z,79.34
2018-09-22T01:07:04.784Z,79.91
2018-09-22T01:08:03.355Z,79.82
2018-09-22T01:10:43.736Z,79.24
2018-09-22T01:11:42.313Z,79.53
2018-09-22T01:12:41.178Z,79.78
2018-09-22T01:13:39.711Z,80.93
2018-09-22T01:14:38.332Z,80.26
2018-09-22T01:33:29.303Z,78.92
2018-09-22T01:34:27.974Z,79.21
2018-09-22T01:35:26.496Z,78.72
2018-09-22T01:36:25.106Z,78.57
2018-09-22T01:37:23.867Z,78.38
2018-09-22T01:40:04.152Z,78.25
2018-09-22T01:41:02.786Z,78.25
2018-09-22T01:42:01.353Z,78.63
2018-09-22T01:42:59.971Z,78.57
2018-09-22T01:45:40.475Z,77.38
2018-09-22T01:46:39.082Z,78.82
2018-09-22T01:47:37.689Z,78.15
2018-09-22T01:48:36.456Z,77.58
2018-09-22T01:49:35.019Z,78.57
2018-09-22T01:50:33.667Z,78.09
2018-09-22T01:51:32.413Z,78.09
2018-09-22T01:52:31.138Z,78.19
2018-09-22T01:53:29.891Z,77.51
2018-09-22T01:54:28.504Z,77.61
2018-09-22T01:55:27.177Z,77.23
2018-09-22T01:56:25.694Z,76.94
2018-09-22T01:57:24.332Z,76.94
2018-09-22T01:58:23.334Z,76.65
2018-09-22T02:01:03.454Z,76.37
2018-09-22T02:03:43.893Z,75.73
2018-09-22T02:04:42.717Z,76.17
2018-09-22T02:05:41.437Z,76.27
2018-09-22T02:06:40.079Z,76.07
2018-09-22T02:07:38.825Z,76.98
2018-09-22T02:08:37.676Z,76.56
2018-09-22T02:09:36.313Z,76.46
2018-09-22T02:10:34.902Z,76.4
2018-09-22T02:13:14.942Z,76.31
2018-09-22T02:14:13.540Z,76.37
2018-09-22T02:15:12.334Z,76.65
2018-09-22T02:16:10.982Z,76.02
2018-09-22T02:18:51.243Z,76.65
2018-09-22T02:19:50.068Z,76.56
2018-09-22T02:20:48.705Z,76.31
2018-09-22T02:21:47.240Z,76.07
2018-09-22T02:22:45.873Z,77.42
2018-09-22T02:23:44.589Z,77.33
2018-09-22T02:24:43.194Z,77.13
2018-09-22T02:25:41.819Z,78.09
2018-09-22T02:26:40.512Z,77.23
2018-09-22T02:27:39.121Z,77.42
2018-09-22T02:28:37.756Z,77.42
2018-09-22T02:29:36.615Z,77.51
2018-09-22T02:32:16.990Z,77.33
2018-09-22T02:33:15.752Z,77.23
2018-09-22T02:34:14.386Z,78
2018-09-22T02:37:53.455Z,78.77
2018-09-22T02:38:52.098Z,78.47
2018-09-22T02:39:51.087Z,78.09
2018-09-22T02:40:49.833Z,78.28
2018-09-22T02:41:48.535Z,78.67
2018-09-22T03:03:23.243Z,78.09
2018-09-22T03:06:03.505Z,78.28
2018-09-22T03:07:02.339Z,77.61
2018-09-22T03:08:00.876Z,77.51
2018-09-22T03:08:59.449Z,78
2018-09-22T03:09:58.086Z,78.28
2018-09-22T03:10:56.997Z,77.23
2018-09-22T03:13:37.249Z,77.61
2018-09-22T03:14:36.090Z,77.9
2018-09-22T03:19:56.802Z,78.86
2018-09-22T03:26:46.420Z,78.38
2018-09-22T03:27:45.885Z,78.57
2018-09-22T03:31:44.373Z,78.09
2018-09-22T03:32:43.513Z,78.03
2018-09-22T03:33:42.097Z,78.09
2018-09-22T03:34:40.772Z,78.67
2018-09-22T03:35:39.388Z,78.67
2018-09-22T03:36:38.024Z,78.67
2018-09-22T03:37:36.674Z,78.03
2018-09-22T03:38:35.233Z,78.57
2018-09-22T03:39:33.885Z,78.42
2018-09-22T03:40:32.844Z,78.09
2018-09-22T03:41:33.695Z,78.7
2018-09-22T03:42:32.432Z,78.52
2018-09-22T03:45:12.976Z,78.8
2018-09-22T03:46:11.580Z,78.38
2018-09-22T03:47:10.398Z,79.05
2018-09-22T03:48:09.026Z,79.05
2018-09-22T03:49:07.616Z,78.99
2018-09-22T03:50:06.242Z,78.99
2018-09-22T03:51:04.795Z,78.96
2018-09-22T03:52:03.604Z,79.14
2018-09-22T03:53:02.424Z,79.14
2018-09-22T03:54:01.138Z,79.34
2018-09-22T03:54:59.780Z,79.34
2018-09-22T03:55:58.651Z,78.77
2018-09-22T03:56:57.276Z,78.77
2018-09-22T03:57:56.099Z,79.53
2018-09-22T03:58:54.733Z,79.24
2018-09-22T03:59:53.404Z,78.86
2018-09-22T04:00:52.208Z,79.53
2018-09-22T04:01:50.809Z,79.63
2018-09-22T04:02:49.475Z,79.53
2018-09-22T04:03:48.147Z,79.82
2018-09-22T04:04:46.745Z,80.45
2018-09-22T04:05:45.357Z,80.64
2018-09-22T04:06:44.663Z,81.22
2018-09-22T04:07:43.259Z,81.22
2018-09-22T04:08:41.980Z,81.6
2018-09-22T04:09:40.629Z,82.27
2018-09-22T04:10:39.173Z,81.56
2018-09-22T04:11:37.878Z,82.37
2018-09-22T04:12:36.783Z,82.37
2018-09-22T04:13:35.306Z,81.7
2018-09-22T04:14:33.899Z,81.02
2018-09-22T04:15:32.516Z,81.31
2018-09-22T04:16:31.142Z,81.02
2018-09-22T04:17:29.728Z,81.07
2018-09-22T04:18:28.435Z,80.4
2018-09-22T04:19:27.008Z,80.3
2018-09-22T04:20:25.613Z,79.91
2018-09-22T04:21:24.221Z,79.91
2018-09-22T04:25:02.995Z,79.63
2018-09-22T04:26:01.598Z,80.3
2018-09-22T04:27:00.150Z,80.01
2018-09-22T04:27:58.702Z,80.16
2018-09-22T04:28:57.629Z,80.45
2018-09-22T04:29:56.199Z,80.83
2018-09-22T04:30:54.832Z,80.93
2018-09-22T04:31:53.564Z,80.78
2018-09-22T04:32:52.229Z,80.3
2018-09-22T04:33:50.833Z,80.49
2018-09-22T04:34:49.378Z,80.49
2018-09-22T04:35:48.141Z,79.82
2018-09-22T04:36:46.808Z,80.49
2018-09-22T04:37:45.317Z,80.01
2018-09-22T04:38:44.035Z,80.4
2018-09-22T04:39:42.672Z,79.53
2018-09-22T04:43:21.424Z,80.55
2018-09-22T04:45:44.323Z,80.45
2018-09-22T04:46:42.923Z,80.83
2018-09-22T04:47:41.616Z,81.22
2018-09-22T04:48:40.162Z,80.45
2018-09-22T04:49:38.809Z,79.88
2018-09-22T04:50:37.411Z,81.02
2018-09-22T04:51:36.131Z,80.83
2018-09-22T04:52:34.755Z,80.74
2018-09-22T04:53:33.365Z,81.22
2018-09-22T04:54:32.016Z,81.02
2018-09-22T04:55:30.889Z,81.12
2018-09-22T04:58:11.300Z,81.37
2018-09-22T04:59:10.111Z,81.7
2018-09-22T05:00:08.823Z,82.18
2018-09-22T05:02:49.230Z,81.75
2018-09-22T05:05:29.520Z,83.09
2018-09-22T05:08:10.311Z,82.81
2018-09-22T05:09:09.789Z,82.71
2018-09-22T05:10:10.344Z,83.67
2018-09-22T05:11:08.412Z,83.86
2018-09-22T05:13:32.301Z,82.27
2018-09-22T05:16:15.072Z,82.65
2018-09-22T05:17:13.975Z,82.08
2018-09-22T05:19:23.965Z,82.37
2018-09-22T05:20:23.055Z,82.08
2018-09-22T05:21:22.754Z,81.51
2018-09-22T05:22:21.764Z,81.6
2018-09-22T05:25:06.360Z,81.51
2018-09-22T05:26:05.409Z,81.6
2018-09-22T05:27:04.271Z,81.51
2018-09-22T05:29:46.807Z,81.07
2018-09-22T05:32:27.588Z,81.45
2018-09-22T05:33:26.309Z,80.58
2018-09-22T05:41:37.226Z,80.97
2018-09-22T05:44:17.873Z,79.72
2018-09-22T05:48:40.134Z,79.91
2018-09-22T05:51:24.750Z,79.53
2018-09-22T05:56:45.473Z,79.34
2018-09-22T05:59:26.677Z,79.05
2018-09-22T06:03:46.188Z,79.72
2018-09-22T06:07:01.222Z,80.64
2018-09-22T06:10:54.657Z,79.63
2018-09-22T06:12:04.422Z,79.24
2018-09-22T06:13:03.495Z,79.44
2018-09-22T06:14:02.568Z,79.72
2018-09-22T06:15:01.984Z,79.82
2018-09-22T06:16:02.172Z,79.72
2018-09-22T06:17:01.763Z,79.53
2018-09-22T06:18:00.638Z,79.63
2018-09-22T06:20:13.788Z,79.91
2018-09-22T06:23:00.996Z,78.67
2018-09-22T06:24:01.406Z,78.57
2018-09-22T06:25:05.992Z,78.38
2018-09-22T06:26:05.718Z,78.13
2018-09-22T06:27:04.395Z,77.61
2018-09-22T06:28:03.885Z,77.8
2018-09-22T06:29:02.751Z,77.56
2018-09-22T06:30:08.536Z,77.71
2018-09-22T06:31:09.847Z,77.17
2018-09-22T06:32:10.865Z,77.65
2018-09-22T06:33:13.776Z,77.23
2018-09-22T06:34:15.923Z,77.75
2018-09-22T06:38:38.475Z,78
2018-09-22T06:39:37.620Z,78.47
2018-09-22T06:43:59.963Z,77.61
2018-09-22T06:44:58.851Z,77.33
2018-09-22T06:46:02.232Z,77.51
2018-09-22T06:47:00.952Z,77.71
2018-09-22T06:52:23.235Z,75.82
2018-09-22T06:53:22.803Z,75.38
2018-09-22T06:54:21.814Z,74.33
2018-09-22T07:01:26.309Z,74.71
2018-09-22T07:15:54.765Z,73.98
2018-09-22T07:16:56.282Z,73.98
2018-09-22T07:19:40.664Z,73.41
2018-09-22T07:20:39.908Z,73.5
2018-09-22T07:21:39.278Z,72.64
2018-09-22T07:23:37.780Z,73.02
2018-09-22T07:26:19.428Z,73.31
2018-09-22T07:27:18.062Z,73.41
2018-09-22T07:28:17.370Z,73.41
2018-09-22T07:29:16.060Z,73.44
2018-09-22T07:30:15.442Z,72.73
2018-09-22T07:32:51.421Z,74.08
2018-09-22T07:41:54.784Z,73.37
2018-09-22T07:44:17.595Z,73.11
2018-09-22T07:45:19.145Z,72.99
2018-09-22T07:46:17.891Z,73.11
2018-09-22T07:49:02.661Z,71.96
2018-09-22T07:50:01.117Z,72
2018-09-22T07:51:00.074Z,71.71
2018-09-22T07:52:00.445Z,71.04
2018-09-22T07:57:22.319Z,71.29
2018-09-22T07:58:21.471Z,71.48
2018-09-22T07:59:20.874Z,71.87
2018-09-22T08:02:01.551Z,71.87
2018-09-22T08:13:06.054Z,66.49
2018-09-22T08:14:07.651Z,66.65
2018-09-22T08:15:06.626Z,66.74
2018-09-22T08:16:05.808Z,66.84
2018-09-22T08:19:45.220Z,66.17
2018-09-22T08:23:24.321Z,66.65
2018-09-22T08:24:23.178Z,66.74
2018-09-22T08:25:22.119Z,65.97
2018-09-22T08:26:21.367Z,65.88
2018-09-22T08:27:20.005Z,66.07
2018-09-22T08:30:00.799Z,66.84
2018-09-22T08:31:01.513Z,65.59
2018-09-22T08:32:00.458Z,65.11
2018-09-22T08:32:59.809Z,65.88
2018-09-22T08:33:58.805Z,65.78
2018-09-22T08:34:57.833Z,65.97
2018-09-22T08:37:38.303Z,65.78
2018-09-22T08:38:37.143Z,65.11
2018-09-22T08:39:36.030Z,64.95
2018-09-22T08:40:34.704Z,64.92
2018-09-22T08:41:33.427Z,64.53
2018-09-22T08:44:14.897Z,65.69
2018-09-22T08:56:59.502Z,63.41
2018-09-22T09:01:26.067Z,62.16
2018-09-22T09:07:38.759Z,63.34
2018-09-22T09:10:03.165Z,63.54
2018-09-22T09:14:19.721Z,62.87
2018-09-22T09:17:13.534Z,60.46
2018-09-22T09:18:12.587Z,59.11
2018-09-22T09:20:55.071Z,59.01
2018-09-22T09:23:35.762Z,59.49
2018-09-22T09:26:16.369Z,58.05
2018-09-22T09:27:55.729Z,58.72
2018-09-22T09:28:54.447Z,58.72
2018-09-22T09:29:53.735Z,59.49
2018-09-22T09:48:14.815Z,56.44
2018-09-22T09:49:14.316Z,56.44
2018-09-22T09:50:13.560Z,56.12
2018-09-22T09:51:11.871Z,55.26
2018-09-22T09:52:10.808Z,55.83
2018-09-22T09:53:09.880Z,56.41
2018-09-22T09:54:09.146Z,56.22
2018-09-22T09:55:08.291Z,56.6
2018-09-22T09:56:07.291Z,56
2018-09-22T09:57:05.940Z,56.51
2018-09-22T09:58:05.549Z,56.8
2018-09-22T10:00:29.083Z,57.64
2018-09-22T10:01:28.042Z,57.47
2018-09-22T10:02:27.073Z,57.57
2018-09-22T10:03:27.604Z,57.37
2018-09-22T10:04:27.856Z,58.05
2018-09-22T10:05:25.923Z,56.51
2018-09-22T10:06:25.082Z,56.32
2018-09-22T10:07:24.045Z,55.87
2018-09-22T10:08:23.256Z,55.57
2018-09-22T10:09:22.219Z,55.57
2018-09-22T10:10:22.383Z,56.32
2018-09-22T10:11:22.718Z,55.74
2018-09-22T10:12:22.188Z,56.32
2018-09-22T10:13:20.994Z,55.74
2018-09-22T10:14:19.706Z,56.41
2018-09-22T10:15:18.538Z,56.38
2018-09-22T10:16:17.252Z,57.09
2018-09-22T10:55:54.012Z,56.12
2018-09-22T10:56:53.813Z,55.65
2018-09-22T10:57:55.866Z,55.83
2018-09-22T10:58:54.803Z,55.55
2018-09-22T10:59:54.664Z,55.65
2018-09-22T11:00:54.240Z,56.12
2018-09-22T11:01:52.659Z,56.41
2018-09-22T11:02:51.791Z,56.7
2018-09-22T11:03:51.021Z,56.63
2018-09-22T11:04:49.879Z,56.82
2018-09-22T11:05:48.779Z,56.54
2018-09-22T11:06:47.816Z,56.05
2018-09-22T11:07:46.420Z,56.44
2018-09-22T11:08:45.327Z,56.63
2018-09-22T11:09:44.255Z,56.15
2018-09-22T11:10:43.157Z,56.44
2018-09-22T11:11:41.967Z,56.25
2018-09-22T11:12:40.747Z,55.89
2018-09-22T11:13:39.426Z,55.7
2018-09-22T11:14:38.050Z,56.47
2018-09-22T11:15:36.977Z,56.54
2018-09-22T11:16:35.932Z,56.82
2018-09-22T11:17:34.673Z,56.73
2018-09-22T11:18:33.588Z,56.73
2018-09-22T11:19:32.365Z,56.15
2018-09-22T11:20:31.093Z,56.44
2018-09-22T11:21:30.363Z,55.87
2018-09-22T11:22:29.201Z,55.87
2018-09-22T11:23:29.564Z,55.77
2018-09-22T11:24:29.287Z,56.18
2018-09-22T11:25:28.407Z,55.89
2018-09-22T11:26:27.969Z,56.27
2018-09-22T11:27:26.894Z,56.27
2018-09-22T11:28:25.591Z,56.37
2018-09-22T11:29:24.963Z,55.96
2018-09-22T11:30:25.745Z,55.96
2018-09-22T11:31:24.736Z,55.67
2018-09-22T11:32:24.083Z,55.77
2018-09-22T11:33:22.827Z,55.48
2018-09-22T11:34:21.589Z,55.96
2018-09-22T11:35:20.703Z,55.77
2018-09-22T11:36:19.983Z,55.77
2018-09-22T11:37:19.025Z,55.41
2018-09-22T11:38:21.445Z,55.7
2018-09-22T11:39:21.282Z,54.74
2018-09-22T11:40:20.158Z,54.64
2018-09-22T11:41:19.817Z,54.74
2018-09-22T11:42:18.807Z,54.54
2018-09-22T11:43:17.583Z,55.02
2018-09-22T11:44:16.672Z,55.02
2018-09-22T11:45:15.889Z,54.74
2018-09-22T11:46:14.804Z,54.83
2018-09-22T11:47:14.452Z,54.86
2018-09-22T11:48:13.497Z,54.96
2018-09-22T11:49:12.591Z,54.28
2018-09-22T11:50:11.330Z,54.09
2018-09-22T11:51:10.428Z,53.99
2018-09-22T11:52:09.156Z,54.18
2018-09-22T11:53:08.581Z,54.47
2018-09-22T11:54:07.008Z,54.57
2018-09-22T11:55:05.686Z,54.28
2018-09-22T11:56:04.496Z,54.02
2018-09-22T11:57:03.733Z,53.25
2018-09-22T11:58:02.710Z,52.57
2018-09-22T11:59:01.975Z,52.67
2018-09-22T12:00:00.765Z,53.22
2018-09-22T12:01:00.445Z,53.03
2018-09-22T12:01:59.713Z,53.13
2018-09-22T12:02:58.635Z,53.31
2018-09-22T12:03:58.180Z,53.67
2018-09-22T12:04:56.378Z,54.35
2018-09-22T12:05:55.461Z,53.7
2018-09-22T12:06:54.200Z,53.99
2018-09-22T12:07:53.256Z,54.66
2018-09-22T12:08:52.118Z,54.38
2018-09-22T12:09:51.736Z,54.76
2018-09-22T12:10:50.486Z,55.63
2018-09-22T12:11:49.209Z,55.54
2018-09-22T12:12:48.244Z,55.05
2018-09-22T12:13:47.254Z,55.63
2018-09-22T12:14:46.082Z,54.96
2018-09-22T12:15:45.058Z,54.76
2018-09-22T12:16:43.720Z,53.31
2018-09-22T12:17:42.384Z,53.22
2018-09-22T12:18:41.460Z,52.35
2018-09-22T12:19:40.619Z,51.97
2018-09-22T12:20:39.290Z,52.64
2018-09-22T12:21:38.200Z,52.25
2018-09-22T12:22:37.461Z,53.19
2018-09-22T12:23:36.714Z,53.61
2018-09-22T12:24:36.155Z,53.41
2018-09-22T12:25:35.875Z,52.06
2018-09-22T12:26:35.591Z,50.52
2018-09-22T12:27:34.343Z,50.62
2018-09-22T12:28:33.352Z,50.71
2018-09-22T12:29:31.974Z,50.78
2018-09-22T12:30:30.792Z,51.36
2018-09-22T12:31:29.858Z,51.65
2018-09-22T12:32:30.267Z,52.25
2018-09-22T12:33:28.856Z,52.45
2018-09-22T16:33:54.646Z,53.17
2018-09-22T16:39:16.224Z,52.49
2018-09-22T16:44:40.409Z,53.07
2018-09-22T16:45:39.202Z,53.45
2018-09-22T16:58:13.321Z,53.17
2018-09-22T16:59:12.524Z,53.45
2018-09-22T17:02:19.039Z,53.17
2018-09-22T17:08:20.153Z,53.27
2018-09-22T17:09:22.806Z,53.94
2018-09-22T17:10:21.908Z,53.81
2018-09-22T17:13:02.932Z,53.45
2018-09-22T17:15:43.409Z,53.27
2018-09-22T17:16:42.292Z,53.55
2018-09-22T17:27:51.481Z,54.22
2018-09-22T17:30:31.975Z,54.3
2018-09-22T17:31:30.944Z,54.78
2018-09-22T17:32:32.155Z,54.68
2018-09-22T17:35:12.768Z,54.49
2018-09-22T17:36:12.246Z,54
2018-09-22T17:37:11.236Z,54.49
2018-09-22T17:38:09.541Z,54.78
2018-09-22T17:39:08.342Z,55.07
2018-09-22T17:40:07.411Z,55.16
2018-09-22T17:41:06.060Z,55.65
2018-09-22T17:42:04.880Z,55.83
2018-09-22T17:44:45.242Z,56.51
2018-09-22T17:45:44.030Z,56.8
2018-09-22T17:48:24.113Z,57.09
2018-09-22T17:49:22.891Z,57.37
2018-09-22T17:52:03.324Z,57.67
2018-09-22T17:54:43.880Z,57.67
2018-09-22T17:55:42.826Z,57.09
2018-09-22T17:56:41.607Z,57.95
2018-09-22T17:57:43.066Z,58.44
2018-09-22T18:00:23.342Z,60.52
2018-09-22T18:04:04.853Z,60.55
2018-09-22T18:06:45.698Z,60.62
2018-09-22T18:07:45.907Z,60.52
2018-09-22T18:08:44.860Z,60.33
2018-09-22T18:09:47.156Z,61.68
2018-09-22T18:10:46.107Z,61.8
2018-09-22T18:11:45.641Z,61.71
2018-09-22T18:12:44.327Z,62.67
2018-09-22T18:13:43.450Z,62.67
2018-09-22T18:14:42.287Z,62.93
2018-09-22T18:15:41.353Z,64.4
2018-09-22T18:16:40.214Z,64.4
2018-09-22T18:17:39.329Z,64.31
2018-09-22T18:18:38.711Z,64.37
2018-09-22T18:19:37.593Z,64.4
2018-09-22T18:20:36.935Z,64.47
2018-09-22T18:23:07.621Z,63.41
2018-09-22T18:24:18.483Z,63.51
2018-09-22T18:27:56.533Z,62.83
2018-09-22T18:36:52.112Z,64.47
2018-09-22T18:37:53.220Z,64.66
2018-09-22T18:38:56.867Z,64.66
2018-09-22T18:39:55.367Z,65.53
2018-09-22T18:43:29.922Z,64.95
2018-09-22T18:44:31.061Z,65.05
2018-09-22T18:45:30.720Z,65.72
2018-09-22T18:46:29.673Z,65.33
2018-09-22T18:50:52.354Z,65.63
2018-09-22T18:51:54.933Z,65.63
2018-09-22T18:52:54.097Z,65.33
2018-09-22T19:04:33.794Z,66.97
2018-09-22T19:38:10.931Z,69.18
2018-09-22T19:40:56.082Z,68.9
2018-09-22T19:41:55.292Z,69.28
2018-09-22T19:42:54.852Z,69.09
2018-09-22T19:43:53.245Z,69.28
2018-09-22T19:44:52.181Z,68.7
2018-09-22T19:45:51.179Z,68.99
2018-09-22T19:46:50.308Z,68.7
2018-09-22T19:49:34.843Z,68.38
2018-09-22T19:51:58.105Z,69.63
2018-09-22T20:09:00.083Z,68.7
2018-09-22T20:13:23.295Z,68.19
2018-09-22T20:14:22.372Z,68.22
2018-09-22T20:15:21.499Z,67.74
2018-09-22T20:16:20.744Z,67.8
2018-09-22T20:19:42.888Z,67.71
2018-09-22T20:20:41.750Z,67.9
2018-09-22T20:21:40.710Z,67.13
2018-09-22T20:22:39.683Z,67.13
2018-09-22T20:23:38.777Z,67.42
2018-09-22T20:26:19.712Z,67.42
2018-09-22T20:27:18.710Z,67.65
2018-09-22T20:28:18.126Z,67.26
2018-09-22T20:29:17.270Z,67.55
2018-09-22T20:30:15.841Z,67.9
2018-09-22T20:31:16.872Z,68.09
2018-09-22T20:32:15.978Z,67.13
2018-09-22T20:33:15.114Z,67.22
2018-09-22T20:34:13.905Z,67.99
2018-09-22T20:38:19.324Z,67.71
2018-09-22T20:39:17.842Z,67.03
2018-09-22T20:40:16.867Z,67.22
2018-09-22T20:41:15.751Z,67.32
2018-09-22T20:42:15.468Z,67.19
2018-09-22T20:43:13.582Z,67.1
2018-09-22T20:44:12.757Z,67.38
2018-09-22T20:45:11.957Z,66.74
2018-09-22T20:46:10.771Z,66.74
2018-09-22T20:47:10.321Z,67.42
2018-09-22T20:48:09.832Z,67.51
2018-09-22T20:49:08.661Z,67.42
2018-09-22T20:50:07.933Z,67.13
2018-09-22T20:52:48.182Z,66.94
2018-09-22T20:53:46.948Z,67.03
2018-09-22T20:54:45.974Z,67.42
2018-09-22T20:55:44.915Z,67.03
2018-09-22T20:56:43.850Z,66.55
2018-09-22T21:00:39.183Z,66.74
2018-09-22T21:03:29.616Z,66.55
2018-09-22T21:14:36.239Z,68.48
2018-09-22T21:18:33.855Z,69.53
2018-09-22T21:19:38.744Z,69.53
2018-09-22T21:20:37.559Z,69.92
2018-09-22T21:21:36.554Z,70.21
2018-09-22T21:22:35.332Z,69.92
2018-09-22T21:23:33.948Z,70.11
2018-09-22T21:24:32.385Z,70.59
2018-09-22T21:25:31.458Z,70.5
2018-09-22T21:26:30.147Z,70.5
2018-09-22T21:27:28.859Z,70.5
2018-09-22T21:28:27.966Z,70.98
2018-09-22T21:29:26.698Z,70.88
2018-09-22T21:30:25.707Z,70.78
2018-09-22T21:31:24.455Z,70.4
2018-09-22T21:32:23.959Z,70.68
2018-09-22T21:33:22.960Z,70.5
2018-09-22T21:34:21.519Z,70.01
2018-09-22T21:35:20.155Z,70.5
2018-09-22T21:36:19.348Z,70.78
2018-09-22T21:37:17.944Z,70.98
2018-09-22T21:38:17.710Z,71.46
2018-09-22T21:39:15.486Z,70.98
2018-09-22T21:40:24.082Z,71.75
2018-09-22T21:41:24.222Z,72.03
2018-09-22T21:42:25.117Z,71.94
2018-09-22T21:43:28.085Z,72.03
2018-09-22T21:44:29.128Z,71.94
2018-09-22T21:45:31.811Z,72.13
2018-09-22T21:46:29.850Z,71.46
2018-09-22T21:47:28.633Z,71.65
2018-09-22T21:48:27.660Z,71.75
2018-09-22T21:49:26.696Z,71.55
2018-09-22T21:50:25.390Z,71.94
2018-09-22T21:51:24.599Z,71.65
2018-09-22T21:52:23.851Z,72.03
2018-09-22T21:53:22.583Z,71.94
2018-09-22T21:54:23.213Z,72.61
2018-09-22T21:55:21.846Z,72.13
2018-09-22T21:56:20.591Z,72.03
2018-09-22T21:57:19.515Z,72.03
2018-09-22T21:58:18.564Z,71.94
2018-09-22T21:59:17.264Z,72.03
2018-09-22T22:01:40.247Z,71.84
2018-09-22T22:02:39.299Z,71.94
2018-09-22T22:03:37.886Z,71.94
2018-09-22T22:04:37.013Z,71.55
2018-09-22T22:05:35.599Z,71.61
2018-09-22T22:06:34.709Z,71.17
2018-09-22T22:07:33.384Z,71.26
2018-09-22T22:08:32.350Z,71.17
2018-09-22T22:09:31.478Z,70.88
2018-09-22T22:10:30.046Z,71.84
2018-09-22T22:11:28.815Z,71.08
2018-09-22T22:12:27.676Z,71.36
2018-09-22T22:13:26.571Z,70.84
2018-09-22T22:14:25.494Z,70.65
2018-09-22T22:15:24.063Z,69.5
2018-09-22T22:16:22.744Z,69.79
2018-09-22T22:17:21.764Z,69.5
2018-09-22T22:18:21.235Z,70.07
2018-09-22T22:30:00.377Z,73.11
2018-09-22T22:30:59.247Z,73.11
2018-09-22T22:31:57.991Z,73.41
2018-09-22T22:32:56.692Z,73.21
2018-09-22T22:33:55.527Z,73.02
2018-09-22T22:34:54.213Z,73.69
2018-09-22T22:35:53.488Z,74.27
2018-09-22T22:36:51.665Z,74.08
2018-09-22T22:37:50.386Z,73.98
2018-09-22T22:38:49.330Z,73.6
2018-09-22T22:39:48.669Z,74.17
2018-09-22T22:40:47.286Z,73.88
2018-09-22T22:41:46.197Z,73.21
2018-09-22T22:42:45.041Z,73.31
2018-09-22T22:43:43.748Z,73.79
2018-09-22T22:44:42.609Z,73.79
2018-09-22T22:45:41.350Z,74.75
2018-09-22T22:46:39.870Z,73.66
2018-09-22T22:47:38.632Z,74.37
2018-09-22T22:48:37.800Z,74.17
2018-09-22T22:49:36.759Z,74.37
2018-09-22T22:50:35.754Z,74.33
2018-09-22T22:51:34.719Z,74.37
2018-09-22T22:52:33.236Z,73.41
2018-09-22T22:53:31.961Z,73.18
2018-09-22T22:54:30.752Z,74.23
2018-09-22T22:55:29.438Z,73.85
2018-09-22T22:56:28.661Z,74.04
2018-09-22T22:57:27.273Z,74.52
2018-09-22T22:58:25.875Z,73.94
2018-09-22T22:59:24.853Z,74.04
2018-09-22T23:00:23.427Z,73.85
2018-09-22T23:01:22.254Z,74.13
2018-09-22T23:03:27.116Z,74.23
2018-09-22T23:06:10.558Z,74.52
2018-09-22T23:15:55.770Z,75.2
2018-09-22T23:20:18.203Z,76.64
2018-09-22T23:23:03.219Z,76.64
2018-09-22T23:28:32.324Z,76.15
2018-09-22T23:40:01.712Z,78.69
2018-09-22T23:41:08.689Z,78.78
2018-09-22T23:56:05.835Z,84.22
